Time;durP1;ratioP1;P1;durP2;ratioP2;P2;SDS_P1;SDS_P2;PMS_P1;PMS_P2;Temp;Humidity;BMP_temperature;BMP_pressure;BME280_temperature;BME280_humidity;BME280_pressure;Samples;Min_cycle;Max_cycle;Signal;HPM_P1;HPM_P2
2022/05/18 00:01:52;;;;;;;16.52;10.35;;;16.60;99.90;;;;;;5069981;28;20100;-88
2022/05/18 00:04:18;;;;;;;19.00;10.48;;;16.60;99.90;;;;;;5048783;28;20512;-87
2022/05/18 00:06:43;;;;;;;14.02;9.88;;;16.50;99.90;;;;;;5066636;28;20060;-88
2022/05/18 00:09:09;;;;;;;20.50;9.75;;;16.50;99.90;;;;;;5066768;28;20051;-88
2022/05/18 00:11:35;;;;;;;15.55;9.48;;;16.50;99.90;;;;;;5066391;28;20080;-88
2022/05/18 00:14:00;;;;;;;17.48;9.23;;;16.50;99.90;;;;;;5066663;28;20821;-88
2022/05/18 00:16:26;;;;;;;20.27;8.57;;;16.40;99.90;;;;;;5050499;28;20388;-87
2022/05/18 00:18:53;;;;;;;16.00;7.60;;;16.40;99.90;;;;;;5065798;28;20041;-87
2022/05/18 00:21:19;;;;;;;13.15;7.85;;;16.40;99.90;;;;;;5049187;28;20045;-88
2022/05/18 00:23:45;;;;;;;14.07;7.20;;;16.30;99.90;;;;;;5049787;28;20048;-87
2022/05/18 00:26:11;;;;;;;12.27;7.22;;;16.30;99.90;;;;;;5065484;28;20153;-88
2022/05/18 00:28:37;;;;;;;13.63;7.07;;;16.20;99.90;;;;;;5066432;28;20036;-87
2022/05/18 00:31:03;;;;;;;17.00;8.05;;;16.30;99.90;;;;;;5065509;28;20037;-87
2022/05/18 00:33:30;;;;;;;12.98;6.93;;;16.20;99.90;;;;;;5066310;28;20044;-87
2022/05/18 00:35:57;;;;;;;20.02;7.05;;;16.20;99.90;;;;;;5080945;28;20043;-87
2022/05/18 00:38:24;;;;;;;16.30;6.88;;;16.20;99.90;;;;;;5068765;28;20044;-87
2022/05/18 00:40:50;;;;;;;15.75;7.00;;;16.20;99.90;;;;;;5069635;28;20165;-88
2022/05/18 00:43:36;;;;;;;12.90;6.32;;;16.10;99.90;;;;;;5085725;28;20126;-88
2022/05/18 00:46:05;;;;;;;15.25;6.25;;;16.10;99.90;;;;;;5069047;28;20044;-88
2022/05/18 00:48:31;;;;;;;17.85;5.88;;;16.10;99.90;;;;;;5069486;28;20503;-88
2022/05/18 00:51:01;;;;;;;13.63;6.07;;;16.00;99.90;;;;;;5069354;28;20051;-87
2022/05/18 00:53:34;;;;;;;12.93;5.88;;;16.00;99.90;;;;;;5085025;28;20040;-87
2022/05/18 00:56:04;;;;;;;;;;;16.10;99.90;;;;;;5087003;28;20131;-87
2022/05/18 00:58:53;;;;;;;13.32;5.88;;;16.10;99.90;;;;;;5068880;28;19943;-87
2022/05/18 01:01:19;;;;;;;15.27;5.63;;;16.00;99.90;;;;;;5068620;28;20466;-87
2022/05/18 01:03:49;;;;;;;15.32;6.25;;;16.00;99.90;;;;;;5071798;28;20094;-87
2022/05/18 01:06:43;;;;;;;11.18;5.18;;;16.00;99.90;;;;;;5073053;28;20136;-87
2022/05/18 01:09:19;;;;;;;;;;;15.90;99.90;;;;;;5090797;28;20076;-88
2022/05/18 01:11:45;;;;;;;14.10;6.57;;;15.90;99.90;;;;;;5074398;28;19924;-88
2022/05/18 01:14:15;;;;;;;11.73;5.55;;;15.90;99.90;;;;;;5088492;28;20040;-88
2022/05/18 01:16:41;;;;;;;14.32;6.38;;;15.80;99.90;;;;;;5073959;28;20044;-87
2022/05/18 01:19:12;;;;;;;12.68;5.38;;;15.80;99.90;;;;;;5072727;28;20178;-87
2022/05/18 01:21:44;;;;;;;15.18;6.88;;;15.80;99.90;;;;;;5072859;28;20452;-87
2022/05/18 01:24:21;;;;;;;11.55;5.60;;;15.80;99.90;;;;;;5088696;28;20040;-87
2022/05/18 01:26:48;;;;;;;12.82;5.60;;;15.80;99.90;;;;;;5053677;28;20440;-88
2022/05/18 01:29:17;;;;;;;14.60;6.20;;;15.70;99.90;;;;;;5052292;28;20341;-87
2022/05/18 01:31:47;;;;;;;10.30;5.30;;;15.70;99.90;;;;;;5053351;28;20407;-87
2022/05/18 01:34:15;;;;;;;13.70;6.10;;;15.70;99.90;;;;;;5052833;28;20048;-87
2022/05/18 01:36:41;;;;;;;9.48;5.43;;;15.70;99.90;;;;;;5051750;28;20289;-87
2022/05/18 01:39:13;;;;;;;11.80;5.40;;;15.70;99.90;;;;;;5052328;28;20048;-87
2022/05/18 01:41:46;;;;;;;14.77;6.20;;;15.70;99.90;;;;;;5069308;28;20456;-87
2022/05/18 01:44:12;;;;;;;13.35;5.65;;;15.70;99.90;;;;;;5052006;28;20135;-86
2022/05/18 01:46:37;;;;;;;16.70;6.00;;;15.70;99.90;;;;;;5052446;28;20460;-87
2022/05/18 01:49:04;;;;;;;13.13;5.95;;;15.70;99.90;;;;;;5067951;28;20040;-87
2022/05/18 01:51:39;;;;;;;15.38;5.10;;;15.70;99.90;;;;;;5051951;28;20511;-86
2022/05/18 01:54:05;;;;;;;12.65;5.32;;;15.70;99.90;;;;;;5052062;28;20465;-87
2022/05/18 01:56:31;;;;;;;12.38;5.45;;;15.70;99.90;;;;;;5051848;28;20133;-87
2022/05/18 01:58:57;;;;;;;14.50;5.00;;;15.60;99.90;;;;;;5052110;28;20036;-87
2022/05/18 02:01:23;;;;;;;14.63;6.18;;;15.60;99.90;;;;;;5068121;28;20083;-86
2022/05/18 02:03:49;;;;;;;16.58;5.70;;;15.50;99.90;;;;;;5067956;28;20364;-87
2022/05/18 02:06:15;;;;;;;13.27;5.60;;;15.50;99.90;;;;;;5068366;28;20059;-87
2022/05/18 02:08:42;;;;;;;12.90;5.38;;;15.50;99.90;;;;;;5052197;28;20071;-87
2022/05/18 02:11:18;;;;;;;13.55;5.10;;;15.50;99.90;;;;;;5067805;28;20064;-87
2022/05/18 02:13:44;;;;;;;20.58;5.80;;;15.40;99.90;;;;;;5051385;28;20045;-87
2022/05/18 02:16:11;;;;;;;14.32;5.60;;;15.30;99.90;;;;;;5068429;28;20059;-86
2022/05/18 02:18:37;;;;;;;13.23;5.22;;;15.30;99.90;;;;;;5067514;28;20507;-87
2022/05/18 02:21:09;;;;;;;18.45;5.60;;;15.30;99.90;;;;;;5051001;28;20100;-87
2022/05/18 02:23:35;;;;;;;11.50;5.13;;;15.20;99.90;;;;;;5051570;28;20442;-87
2022/05/18 02:26:08;;;;;;;12.60;5.28;;;15.20;99.90;;;;;;5051257;28;20047;-88
2022/05/18 02:28:34;;;;;;;10.75;5.00;;;15.10;99.90;;;;;;5051573;28;20407;-88
2022/05/18 02:31:00;;;;;;;9.63;5.13;;;15.10;99.90;;;;;;5051736;28;20052;-87
2022/05/18 02:33:25;;;;;;;11.27;4.68;;;15.00;99.90;;;;;;5067992;28;20492;-86
2022/05/18 02:35:51;;;;;;;9.25;4.88;;;15.00;99.90;;;;;;5067973;28;20037;-87
2022/05/18 02:38:17;;;;;;;14.85;4.88;;;15.00;99.90;;;;;;5067006;28;20052;-87
2022/05/18 02:40:43;;;;;;;13.98;5.70;;;15.00;99.90;;;;;;5051374;28;20635;-86
2022/05/18 02:43:09;;;;;;;11.00;5.47;;;14.90;99.90;;;;;;5067126;28;20053;-87
2022/05/18 02:45:34;;;;;;;13.40;5.50;;;14.90;99.90;;;;;;5051063;28;20190;-86
2022/05/18 02:48:00;;;;;;;12.98;5.72;;;14.80;99.90;;;;;;5068558;28;20064;-88
2022/05/18 02:50:26;;;;;;;14.20;6.05;;;14.80;99.90;;;;;;5051023;28;20507;-87
2022/05/18 02:52:52;;;;;;;13.25;6.32;;;14.80;99.90;;;;;;5050696;28;20044;-87
2022/05/18 02:58:02;;;;;;;15.95;5.35;;;14.60;99.90;;;;;;5067469;28;20198;-86
2022/05/18 03:00:27;;;;;;;13.93;5.65;;;14.70;99.90;;;;;;5067005;28;20131;-87
2022/05/18 03:02:55;;;;;;;12.60;6.00;;;14.70;99.90;;;;;;5051181;28;20055;-87
2022/05/18 03:05:21;;;;;;;15.00;5.50;;;14.70;99.90;;;;;;5049869;28;20044;-86
2022/05/18 03:07:46;;;;;;;12.50;5.30;;;14.70;99.90;;;;;;5066828;28;20125;-86
2022/05/18 03:10:15;;;;;;;15.43;6.00;;;14.70;99.90;;;;;;5067094;28;20097;-86
2022/05/18 03:12:43;;;;;;;11.35;5.75;;;14.70;99.90;;;;;;5050832;28;20052;-86
2022/05/18 03:15:10;;;;;;;11.77;5.10;;;14.80;99.90;;;;;;5050094;28;20471;-86
2022/05/18 03:17:35;;;;;;;12.57;5.53;;;14.80;99.90;;;;;;5067263;28;20059;-86
2022/05/18 03:20:01;;;;;;;12.27;5.55;;;14.70;99.90;;;;;;5066986;28;20040;-86
2022/05/18 03:25:11;;;;;;;8.95;5.60;;;14.70;99.90;;;;;;5066329;28;20083;-86
2022/05/18 03:27:43;;;;;;;10.75;5.75;;;14.70;99.90;;;;;;5066150;28;20449;-86
2022/05/18 03:30:11;;;;;;;8.50;5.18;;;14.70;99.90;;;;;;5066392;28;20052;-87
2022/05/18 03:32:37;;;;;;;11.32;5.15;;;14.70;99.90;;;;;;5050625;28;20040;-86
2022/05/18 03:35:04;;;;;;;9.35;5.30;;;14.60;99.90;;;;;;5048500;28;20109;-87
2022/05/18 03:37:29;;;;;;;12.98;5.85;;;14.60;99.90;;;;;;5050694;28;20547;-86
2022/05/18 03:39:55;;;;;;;11.43;4.93;;;14.60;99.90;;;;;;5066950;28;20185;-86
2022/05/18 03:42:21;;;;;;;10.15;5.70;;;14.80;99.90;;;;;;5065241;28;20137;-87
2022/05/18 03:44:47;;;;;;;14.95;5.93;;;14.60;99.90;;;;;;5066590;28;20049;-86
2022/05/18 03:47:13;;;;;;;11.73;5.00;;;14.60;99.90;;;;;;5065877;28;20194;-86
2022/05/18 03:49:38;;;;;;;11.40;5.55;;;14.60;99.90;;;;;;5065579;28;20209;-87
2022/05/18 03:52:04;;;;;;;13.10;5.90;;;14.50;99.90;;;;;;5051367;28;20048;-87
2022/05/18 03:54:31;;;;;;;11.13;6.20;;;14.50;99.90;;;;;;5049787;28;20048;-86
2022/05/18 03:56:56;;;;;;;12.90;6.10;;;14.50;99.90;;;;;;5049552;28;20059;-86
2022/05/18 03:59:22;;;;;;;12.15;5.80;;;14.50;99.90;;;;;;5066686;28;20123;-86
2022/05/18 04:01:48;;;;;;;13.45;6.20;;;14.60;99.90;;;;;;5066455;28;20056;-86
2022/05/18 04:04:13;;;;;;;13.52;6.18;;;14.60;99.90;;;;;;5065093;28;20145;-86
2022/05/18 04:06:39;;;;;;;10.77;5.88;;;14.60;99.90;;;;;;5049567;28;20068;-86
2022/05/18 04:09:05;;;;;;;14.82;5.65;;;14.60;99.90;;;;;;5049501;28;20549;-86
2022/05/18 04:11:30;;;;;;;14.18;6.25;;;14.70;99.90;;;;;;5066007;28;20052;-86
2022/05/18 04:13:56;;;;;;;12.98;5.53;;;14.70;99.90;;;;;;5066090;28;20041;-86
2022/05/18 04:16:22;;;;;;;9.57;5.65;;;14.70;99.90;;;;;;5049445;28;20094;-85
2022/05/18 04:18:47;;;;;;;12.23;6.13;;;14.70;99.90;;;;;;5048695;28;20048;-86
2022/05/18 04:21:13;;;;;;;10.25;6.97;;;14.80;99.90;;;;;;5082437;28;20048;-85
2022/05/18 04:23:40;;;;;;;15.77;6.28;;;14.80;99.90;;;;;;5065342;28;20400;-87
2022/05/18 04:26:06;;;;;;;11.85;5.63;;;14.90;99.90;;;;;;5049240;28;20048;-87
2022/05/18 04:28:32;;;;;;;14.05;5.85;;;14.90;99.90;;;;;;5066122;28;20121;-86
2022/05/18 04:30:58;;;;;;;12.10;6.43;;;15.00;99.90;;;;;;5083577;28;20041;-86
2022/05/18 04:33:25;;;;;;;13.85;6.45;;;15.00;99.90;;;;;;5089184;28;20044;-86
2022/05/18 04:35:51;;;;;;;14.02;5.80;;;15.00;99.90;;;;;;5070697;28;20387;-85
2022/05/18 04:38:19;;;;;;;10.85;6.00;;;15.10;99.90;;;;;;5048681;28;20127;-86
2022/05/18 04:40:44;;;;;;;10.20;6.50;;;15.20;99.90;;;;;;5066332;28;20140;-87
2022/05/18 04:43:10;;;;;;;13.05;6.20;;;15.10;99.90;;;;;;5064975;28;20048;-86
2022/05/18 04:45:37;;;;;;;9.40;5.68;;;15.30;99.90;;;;;;5048690;28;20049;-86
2022/05/18 04:48:03;;;;;;;14.18;5.80;;;15.40;99.90;;;;;;5065165;28;20109;-86
2022/05/18 04:50:29;;;;;;;10.75;5.97;;;15.50;99.90;;;;;;5065947;28;20562;-86
2022/05/18 04:52:55;;;;;;;13.10;6.10;;;15.50;99.90;;;;;;5066935;28;20058;-86
2022/05/18 04:55:20;;;;;;;12.13;6.25;;;15.60;99.90;;;;;;5065627;28;20045;-86
2022/05/18 04:57:46;;;;;;;16.88;5.93;;;15.80;99.90;;;;;;5048943;28;20178;-86
2022/05/18 05:00:13;;;;;;;13.52;5.80;;;15.90;99.90;;;;;;5047844;28;20049;-86
2022/05/18 05:02:40;;;;;;;15.23;5.50;;;16.00;99.90;;;;;;5049139;28;20044;-86
2022/05/18 05:05:07;;;;;;;13.15;5.50;;;16.10;99.90;;;;;;5047964;28;20135;-86
2022/05/18 05:07:33;;;;;;;9.38;5.93;;;16.20;99.90;;;;;;5048737;28;20048;-86
2022/05/18 05:09:58;;;;;;;10.60;5.63;;;16.30;99.90;;;;;;5066021;28;20052;-86
2022/05/18 05:12:26;;;;;;;12.65;5.65;;;16.40;99.90;;;;;;5083353;28;20041;-86
2022/05/18 05:14:51;;;;;;;11.02;5.32;;;16.50;99.90;;;;;;5066554;28;20159;-87
2022/05/18 05:17:17;;;;;;;11.93;6.00;;;16.50;99.90;;;;;;5066732;28;20104;-86
2022/05/18 05:19:43;;;;;;;11.07;6.07;;;16.60;99.90;;;;;;5048419;28;20044;-87
2022/05/18 05:22:08;;;;;;;8.68;5.63;;;16.70;99.90;;;;;;5048416;28;20045;-86
2022/05/18 05:24:35;;;;;;;11.85;6.50;;;16.70;99.90;;;;;;5068738;28;20049;-86
2022/05/18 05:27:01;;;;;;;11.20;5.88;;;16.70;99.90;;;;;;5085362;28;20052;-86
2022/05/18 05:29:26;;;;;;;13.68;6.15;;;16.70;99.90;;;;;;5068395;28;20139;-86
2022/05/18 05:31:52;;;;;;;11.73;6.22;;;16.80;99.90;;;;;;5069299;28;20123;-87
2022/05/18 05:34:18;;;;;;;11.57;6.32;;;16.80;99.90;;;;;;5084460;28;20044;-87
2022/05/18 05:36:44;;;;;;;10.18;5.97;;;16.90;99.90;;;;;;5070040;28;20198;-87
2022/05/18 05:39:10;;;;;;;12.13;5.93;;;17.00;99.90;;;;;;5085633;28;20198;-86
2022/05/18 05:41:35;;;;;;;10.40;6.13;;;17.10;99.90;;;;;;5066989;28;20040;-87
2022/05/18 05:44:02;;;;;;;11.93;6.60;;;17.20;99.90;;;;;;5048925;28;20067;-88
2022/05/18 05:46:28;;;;;;;8.52;5.55;;;17.30;99.90;;;;;;5057207;28;20078;-88
2022/05/18 05:48:55;;;;;;;11.43;6.38;;;17.40;99.90;;;;;;5079166;28;20068;-88
2022/05/18 05:51:23;;;;;;;11.02;6.40;;;17.50;99.90;;;;;;5064842;28;20131;-87
2022/05/18 05:53:51;;;;;;;10.57;6.55;;;17.50;99.90;;;;;;5083295;28;20040;-87
2022/05/18 05:56:18;;;;;;;9.52;6.13;;;17.70;99.90;;;;;;5091466;28;20444;-86
2022/05/18 05:58:44;;;;;;;10.38;6.20;;;17.70;99.90;;;;;;5086095;28;20492;-86
2022/05/18 06:01:12;;;;;;;9.15;6.05;;;17.80;99.90;;;;;;5081822;28;20425;-87
2022/05/18 06:03:39;;;;;;;9.73;6.00;;;17.90;99.90;;;;;;5094673;28;20044;-86
2022/05/18 06:06:05;;;;;;;14.82;6.53;;;18.00;99.90;;;;;;5086456;28;20047;-87
2022/05/18 06:08:32;;;;;;;11.90;6.63;;;18.10;99.90;;;;;;5081515;28;20050;-86
2022/05/18 06:10:59;;;;;;;9.43;5.85;;;18.10;99.90;;;;;;5078119;28;20542;-86
2022/05/18 06:13:26;;;;;;;11.93;6.07;;;18.20;99.90;;;;;;5077892;28;20062;-87
2022/05/18 06:15:52;;;;;;;9.63;6.07;;;18.30;99.90;;;;;;5083962;28;20075;-87
2022/05/18 06:18:18;;;;;;;11.82;6.60;;;18.30;99.90;;;;;;5074386;28;20055;-86
2022/05/18 06:20:47;;;;;;;10.68;6.85;;;18.40;99.90;;;;;;5103168;28;20040;-87
2022/05/18 06:23:13;;;;;;;20.42;6.68;;;18.60;99.90;;;;;;5080239;28;20082;-86
2022/05/18 06:25:39;;;;;;;15.18;7.25;;;18.60;99.90;;;;;;5095874;28;20036;-87
2022/05/18 06:28:06;;;;;;;15.68;6.72;;;18.70;99.90;;;;;;5087503;28;20046;-86
2022/05/18 06:30:31;;;;;;;22.80;7.15;;;18.80;99.90;;;;;;5078175;28;20039;-85
2022/05/18 06:32:57;;;;;;;11.05;6.80;;;18.90;99.90;;;;;;5101812;28;20050;-82
2022/05/18 06:35:24;;;;;;;14.60;7.40;;;19.00;99.90;;;;;;5098510;28;20134;-86
2022/05/18 06:37:49;;;;;;;11.30;7.15;;;19.10;99.90;;;;;;5077517;28;20044;-91
2022/05/18 06:40:16;;;;;;;11.25;7.20;;;19.10;99.90;;;;;;5088306;28;20039;-85
2022/05/18 06:42:43;;;;;;;10.45;7.00;;;19.20;99.90;;;;;;5092338;28;20119;-85
2022/05/18 06:45:11;;;;;;;12.80;6.85;;;19.30;99.90;;;;;;5081039;28;20044;-85
2022/05/18 06:47:37;;;;;;;12.77;7.32;;;19.40;99.90;;;;;;5083952;28;20047;-85
2022/05/18 06:50:05;;;;;;;12.43;7.30;;;19.50;99.90;;;;;;5082751;28;20414;-85
2022/05/18 06:52:31;;;;;;;11.20;6.95;;;19.60;99.90;;;;;;5071026;28;20122;-85
2022/05/18 06:54:57;;;;;;;11.35;6.88;;;19.80;99.90;;;;;;5077844;28;20043;-85
2022/05/18 06:57:23;;;;;;;12.45;7.13;;;19.90;99.90;;;;;;5079715;28;20051;-85
2022/05/18 06:59:49;;;;;;;11.77;6.93;;;20.00;99.90;;;;;;5086743;27;20055;-84
2022/05/18 07:02:14;;;;;;;13.38;7.97;;;20.10;99.90;;;;;;5092178;27;20498;-85
2022/05/18 07:04:40;;;;;;;11.35;7.47;;;20.30;99.90;;;;;;5100528;27;20496;-84
2022/05/18 07:07:06;;;;;;;11.32;7.10;;;20.40;99.90;;;;;;5095063;28;20051;-84
2022/05/18 07:09:32;;;;;;;13.02;7.70;;;20.40;99.90;;;;;;5102420;27;20044;-85
2022/05/18 07:11:57;;;;;;;14.32;8.48;;;20.50;99.90;;;;;;5104581;27;20054;-84
2022/05/18 07:14:26;;;;;;;13.15;7.68;;;20.50;99.90;;;;;;5103592;27;20072;-85
2022/05/18 07:16:54;;;;;;;16.48;7.57;;;20.60;99.90;;;;;;5104635;27;20054;-85
2022/05/18 07:19:20;;;;;;;12.35;7.07;;;20.60;99.90;;;;;;5097276;27;20062;-85
2022/05/18 07:21:47;;;;;;;13.32;7.90;;;20.80;99.90;;;;;;5099625;27;20054;-84
2022/05/18 07:24:13;;;;;;;12.10;7.22;;;20.90;99.90;;;;;;5098745;28;20560;-85
2022/05/18 07:26:39;;;;;;;12.80;6.88;;;21.00;99.90;;;;;;5093042;27;20139;-85
2022/05/18 07:29:06;;;;;;;10.65;7.20;;;21.10;99.90;;;;;;5076212;27;20504;-85
2022/05/18 07:32:08;;;;;;;12.20;7.15;;;21.20;99.90;;;;;;5077026;27;20058;-85
2022/05/18 07:34:19;;;;;;;14.70;7.32;;;21.30;99.90;;;;;;5089314;28;20150;-83
2022/05/18 07:36:44;;;;;;;14.88;7.85;;;21.30;99.90;;;;;;5109238;28;20510;-84
2022/05/18 07:39:11;;;;;;;12.55;7.60;;;21.40;99.90;;;;;;5089953;28;20075;-84
2022/05/18 07:41:38;;;;;;;13.77;7.18;;;21.50;99.90;;;;;;5090544;28;20449;-85
2022/05/18 07:44:04;;;;;;;10.68;7.25;;;21.60;99.90;;;;;;5072166;28;20476;-85
2022/05/18 07:46:30;;;;;;;12.27;7.00;;;21.70;99.90;;;;;;5091250;28;20043;-85
2022/05/18 07:48:55;;;;;;;13.80;7.05;;;21.90;99.90;;;;;;5089857;28;20039;-84
2022/05/18 07:51:21;;;;;;;11.25;6.50;;;22.00;99.90;;;;;;5089355;28;20467;-83
2022/05/18 07:53:47;;;;;;;14.18;7.03;;;22.20;99.90;;;;;;5090838;28;20050;-85
2022/05/18 07:56:13;;;;;;;12.20;6.45;;;22.30;99.90;;;;;;5072012;28;20490;-85
2022/05/18 07:58:39;;;;;;;14.45;6.72;;;22.40;99.90;;;;;;5090343;28;20073;-85
2022/05/18 08:01:07;;;;;;;14.63;6.43;;;22.40;99.90;;;;;;5090019;28;20063;-86
2022/05/18 08:03:34;;;;;;;13.23;6.25;;;22.40;99.90;;;;;;5072675;28;20055;-86
2022/05/18 08:05:59;;;;;;;15.65;6.35;;;22.50;99.90;;;;;;5090382;28;20048;-86
2022/05/18 08:08:26;;;;;;;10.50;5.93;;;22.60;99.90;;;;;;5089826;28;20039;-85
2022/05/18 08:16:20;;;;;;;13.30;5.45;;;23.00;99.90;;;;;;5078149;28;20569;-85
2022/05/18 08:18:46;;;;;;;10.80;5.03;;;23.10;99.90;;;;;;5077352;28;20036;-85
2022/05/18 08:21:12;;;;;;;9.75;4.28;;;23.20;99.90;;;;;;5078419;28;20047;-84
2022/05/18 08:23:38;;;;;;;10.00;3.85;;;23.30;99.90;;;;;;5096397;28;20139;-85
2022/05/18 08:26:04;;;;;;;9.82;3.72;;;23.40;99.90;;;;;;5077302;28;20040;-86
2022/05/18 08:28:31;;;;;;;13.45;3.58;;;23.50;99.90;;;;;;5065952;28;20415;-86
2022/05/18 08:30:58;;;;;;;12.45;3.60;;;23.70;99.90;;;;;;5071850;28;20062;-85
2022/05/18 08:33:24;;;;;;;11.40;3.88;;;23.80;99.90;;;;;;5088656;28;20479;-84
2022/05/18 08:35:50;;;;;;;9.70;3.58;;;23.80;99.90;;;;;;5077784;28;20123;-85
2022/05/18 08:38:16;;;;;;;11.25;3.70;;;23.90;99.90;;;;;;5077072;28;20127;-85
2022/05/18 08:41:12;;;;;;;13.18;3.08;;;24.10;99.90;;;;;;5089050;28;20044;-84
2022/05/18 08:43:41;;;;;;;8.18;2.60;;;24.20;99.90;;;;;;5094940;28;20051;-85
2022/05/18 08:46:27;;;;;;;6.28;2.65;;;24.20;99.90;;;;;;5072460;28;20027;-85
2022/05/18 08:49:09;;;;;;;8.70;2.35;;;24.30;99.90;;;;;;5088897;28;20043;-85
2022/05/18 08:51:45;;;;;;;;;;;24.30;99.90;;;;;;5083816;28;20046;-85
2022/05/18 08:54:24;;;;;;;5.47;2.85;;;24.30;99.90;;;;;;5088146;28;20318;-85
2022/05/18 08:56:52;;;;;;;10.15;3.45;;;24.40;99.90;;;;;;5090838;28;20135;-85
2022/05/18 08:59:29;;;;;;;7.30;2.90;;;24.50;99.90;;;;;;5078044;28;20704;-85
2022/05/18 09:01:59;;;;;;;7.40;2.97;;;24.60;99.90;;;;;;5081403;28;20458;-84
2022/05/18 09:04:45;;;;;;;12.02;3.72;;;24.60;99.90;;;;;;5069247;28;20044;-85
2022/05/18 09:07:15;;;;;;;9.45;3.10;;;24.70;99.90;;;;;;5090575;28;20118;-87
2022/05/18 09:12:39;;;;;;;6.70;2.40;;;24.90;99.90;;;;;;5096911;28;20405;-88
2022/05/18 09:15:08;;;;;;;7.80;2.45;;;25.00;99.90;;;;;;5093789;28;20408;-88
2022/05/18 09:17:51;;;;;;;6.25;2.40;;;25.10;99.90;;;;;;5084862;28;20036;-88
2022/05/18 09:20:43;;;;;;;8.77;2.40;;;25.10;99.90;;;;;;5067564;28;20048;-88
2022/05/18 09:23:12;;;;;;;9.38;2.53;;;25.20;99.90;;;;;;5069619;27;20139;-87
2022/05/18 09:25:51;;;;;;;11.32;2.90;;;25.30;99.90;;;;;;5087053;28;20423;-89
2022/05/18 09:28:21;;;;;;;8.20;2.45;;;25.30;99.90;;;;;;5090581;27;20074;-89
2022/05/18 09:31:13;;;;;;;12.93;2.92;;;25.40;99.90;;;;;;5089595;28;20552;-91
2022/05/18 09:33:44;;;;;;;8.93;2.67;;;25.40;99.90;;;;;;5082255;27;20066;-89
2022/05/18 09:36:26;;;;;;;6.22;2.75;;;25.40;99.90;;;;;;5112364;27;20039;-89
2022/05/18 09:39:03;;;;;;;7.88;2.88;;;25.60;99.90;;;;;;5096237;27;20119;-89
2022/05/18 09:41:35;;;;;;;7.00;2.60;;;25.60;99.90;;;;;;5056790;28;20040;-90
2022/05/18 09:44:06;;;;;;;11.60;2.80;;;25.70;99.90;;;;;;5073098;28;20055;-89
2022/05/18 09:46:32;;;;;;;6.03;2.65;;;25.80;99.90;;;;;;5077223;28;20534;-89
2022/05/18 09:49:06;;;;;;;10.65;3.38;;;25.90;99.90;;;;;;5056773;28;20086;-90
2022/05/18 09:51:32;;;;;;;7.85;3.22;;;26.00;99.90;;;;;;5073871;28;20090;-90
2022/05/18 09:53:59;;;;;;;12.70;3.10;;;26.10;99.90;;;;;;5057673;28;20472;-90
2022/05/18 09:56:30;;;;;;;8.80;3.20;;;26.20;99.90;;;;;;5073232;28;20055;-90
2022/05/18 09:59:01;;;;;;;14.07;3.60;;;26.30;99.90;;;;;;5074311;28;20092;-90
2022/05/18 10:10:10;;;;;;;13.10;4.00;;;26.50;99.90;;;;;;5049849;28;20049;-90
2022/05/18 10:12:43;;;;;;;9.02;3.75;;;26.60;99.90;;;;;;5034005;28;20136;-91
2022/05/18 10:15:20;;;;;;;13.68;4.88;;;26.70;99.90;;;;;;5033399;28;20048;-90
2022/05/18 10:17:51;;;;;;;11.57;4.10;;;26.80;99.90;;;;;;5051283;28;20083;-89
2022/05/18 10:20:28;;;;;;;12.20;4.10;;;26.70;99.90;;;;;;5034873;28;20075;-90
2022/05/18 10:22:55;;;;;;;9.43;3.88;;;26.80;99.90;;;;;;5049451;28;20049;-90
2022/05/18 10:25:39;;;;;;;10.25;4.30;;;27.00;99.90;;;;;;5052073;28;20041;-89
2022/05/18 10:28:24;;;;;;;10.57;3.70;;;27.10;99.90;;;;;;5033300;28;20045;-89
2022/05/18 10:30:57;;;;;;;8.45;3.22;;;27.10;99.90;;;;;;5033314;28;20458;-88
2022/05/18 10:33:36;;;;;;;12.60;3.30;;;27.20;99.90;;;;;;5055026;28;20041;-90
2022/05/18 10:36:10;;;;;;;7.85;3.33;;;27.30;99.90;;;;;;5034205;28;20060;-90
2022/05/18 10:38:47;;;;;;;11.60;3.78;;;27.30;99.90;;;;;;5033995;28;20110;-90
2022/05/18 10:41:16;;;;;;;9.18;3.53;;;27.30;99.90;;;;;;5050623;28;20049;-89
2022/05/18 10:44:11;;;;;;;7.63;3.47;;;27.30;99.30;;;;;;5035030;28;20095;-90
2022/05/18 10:46:43;;;;;;;13.57;3.88;;;27.20;99.20;;;;;;5034565;28;20041;-88
2022/05/18 10:49:21;;;;;;;8.50;3.10;;;27.30;99.80;;;;;;5033420;28;20045;-89
2022/05/18 10:51:49;;;;;;;9.10;3.70;;;27.40;99.00;;;;;;5032679;28;20045;-89
2022/05/18 10:54:23;;;;;;;8.73;3.50;;;27.40;97.80;;;;;;5052175;28;20045;-89
2022/05/18 10:56:50;;;;;;;10.40;3.40;;;27.50;96.90;;;;;;5067001;28;20044;-87
2022/05/18 10:59:32;;;;;;;9.80;2.88;;;27.50;99.00;;;;;;5060936;28;20045;-89
2022/05/18 11:02:27;;;;;;;7.90;3.80;;;27.60;98.80;;;;;;5075551;28;20064;-86
2022/05/18 11:04:57;;;;;;;11.60;3.80;;;27.70;98.60;;;;;;5072612;28;20361;-85
2022/05/18 11:07:26;;;;;;;12.82;4.22;;;27.70;99.00;;;;;;5052772;28;20313;-83
2022/05/18 11:09:53;;;;;;;14.10;4.28;;;27.70;98.60;;;;;;5082412;28;20091;-83
2022/05/18 11:12:38;;;;;;;15.07;4.72;;;27.80;98.30;;;;;;5067342;28;20040;-82
2022/05/18 11:15:08;;;;;;;18.60;5.32;;;27.70;98.30;;;;;;5088978;28;20134;-81
2022/05/18 11:18:04;;;;;;;16.35;5.22;;;27.70;97.60;;;;;;5081462;28;20123;-82
2022/05/18 11:20:41;;;;;;;11.65;4.95;;;27.70;97.10;;;;;;5081579;28;20047;-83
2022/05/18 11:23:18;;;;;;;10.27;5.78;;;27.80;97.70;;;;;;5080169;28;20075;-83
2022/05/18 11:25:56;;;;;;;11.90;4.80;;;27.80;96.10;;;;;;5097800;28;20450;-83
2022/05/18 11:28:39;;;;;;;10.57;4.70;;;27.80;96.70;;;;;;5086798;28;20124;-84
2022/05/18 11:31:40;;;;;;;11.32;4.78;;;27.80;98.60;;;;;;5076092;28;20051;-84
2022/05/18 11:34:33;;;;;;;13.10;4.60;;;27.80;99.90;;;;;;5088578;28;20083;-82
2022/05/18 11:37:06;;;;;;;;;;;28.00;99.90;;;;;;5093437;28;20094;-82
2022/05/18 11:39:46;;;;;;;14.15;4.88;;;28.00;99.90;;;;;;5080723;28;19924;-84
2022/05/18 11:42:25;;;;;;;13.23;5.10;;;28.20;99.90;;;;;;5093254;28;20048;-82
2022/05/18 11:45:05;;;;;;;16.65;4.88;;;28.30;99.80;;;;;;5098184;28;20040;-83
2022/05/18 11:47:56;;;;;;;11.13;5.18;;;28.30;97.60;;;;;;5085973;28;20052;-82
2022/05/18 11:50:28;;;;;;;9.60;4.55;;;28.40;98.50;;;;;;5100710;28;20051;-83
2022/05/18 11:53:14;;;;;;;9.00;5.50;;;28.50;97.90;;;;;;5091607;28;20126;-82
2022/05/18 11:55:49;;;;;;;15.20;6.22;;;28.60;96.90;;;;;;5101001;28;20298;-83
2022/05/18 11:58:47;;;;;;;12.23;4.80;;;28.70;98.10;;;;;;5078076;28;20574;-82
2022/05/18 12:01:18;;;;;;;9.50;5.15;;;28.50;94.90;;;;;;5089459;28;20142;-82
2022/05/18 12:03:48;;;;;;;8.90;3.50;;;28.50;94.50;;;;;;5080451;28;20058;-83
2022/05/18 12:06:26;;;;;;;7.60;2.78;;;28.40;96.00;;;;;;5071964;28;20047;-82
2022/05/18 12:09:05;;;;;;;11.00;3.20;;;28.40;95.80;;;;;;5065728;28;20050;-83
2022/05/18 12:11:31;;;;;;;9.25;3.10;;;28.50;96.40;;;;;;5086999;28;20146;-83
2022/05/18 12:13:57;;;;;;;8.30;3.35;;;28.60;95.80;;;;;;5093333;28;20135;-82
2022/05/18 12:16:31;;;;;;;9.98;4.00;;;28.70;96.30;;;;;;5085303;28;20051;-83
2022/05/18 12:19:13;;;;;;;9.93;4.70;;;28.70;95.00;;;;;;5068911;28;20447;-86
2022/05/18 12:21:41;;;;;;;;;;;28.70;95.30;;;;;;5082094;28;20446;-83
2022/05/18 12:24:10;;;;;;;13.20;5.25;;;28.30;96.10;;;;;;5062599;28;19930;-82
2022/05/18 12:26:40;;;;;;;16.55;5.95;;;28.20;97.20;;;;;;5084533;28;20050;-83
2022/05/18 12:29:08;;;;;;;9.80;5.70;;;28.20;98.10;;;;;;5073173;28;20315;-83
2022/05/18 12:31:35;;;;;;;18.67;7.90;;;28.20;99.20;;;;;;5085096;28;20062;-83
2022/05/18 12:34:18;;;;;;;14.73;6.93;;;28.40;99.90;;;;;;5090983;28;20054;-82
2022/05/18 12:36:51;;;;;;;14.40;8.18;;;28.60;99.90;;;;;;5091954;28;20075;-83
2022/05/18 12:39:31;;;;;;;13.68;7.45;;;28.60;99.70;;;;;;5074747;28;20406;-84
2022/05/18 12:42:00;;;;;;;19.13;6.00;;;28.60;99.90;;;;;;5087583;28;20564;-83
2022/05/18 12:44:44;;;;;;;12.23;6.75;;;28.70;99.90;;;;;;5073281;28;20039;-85
2022/05/18 12:47:22;;;;;;;9.88;5.45;;;28.60;99.60;;;;;;5073562;28;20047;-84
2022/05/18 12:50:00;;;;;;;10.65;6.47;;;28.60;99.00;;;;;;5060606;28;20043;-83
2022/05/18 12:52:29;;;;;;;9.13;3.78;;;28.70;99.90;;;;;;5084210;28;20089;-84
2022/05/18 12:55:00;;;;;;;6.55;3.60;;;28.70;99.20;;;;;;5095874;28;20118;-83
2022/05/18 12:57:51;;;;;;;11.18;4.60;;;28.60;99.10;;;;;;5091554;28;20123;-83
2022/05/18 13:00:38;;;;;;;10.88;6.28;;;28.50;97.80;;;;;;5081340;28;20059;-83
2022/05/18 13:03:09;;;;;;;15.65;6.00;;;28.30;99.40;;;;;;5080933;28;20796;-84
2022/05/18 13:05:36;;;;;;;13.07;6.38;;;28.00;99.90;;;;;;5069169;28;20113;-83
2022/05/18 13:08:11;;;;;;;12.43;6.05;;;27.90;99.90;;;;;;5053020;28;20091;-84
2022/05/18 13:10:38;;;;;;;11.35;6.80;;;27.80;99.90;;;;;;5053557;28;20036;-84
2022/05/18 13:13:17;;;;;;;11.65;7.57;;;27.60;99.90;;;;;;5051656;28;20101;-85
2022/05/18 13:15:54;;;;;;;13.60;6.55;;;27.60;99.90;;;;;;5053567;28;20052;-85
2022/05/18 13:18:29;;;;;;;25.60;12.02;;;27.60;99.90;;;;;;5072591;28;20045;-91